• Join FlightAware (Why Join?)
  • Login
  • US Flag 
01:29AM EDT


 

Airport Tracker/Info


-or-


 

Live Flight TrackerFlight Track Log ✈ CTL15 ✈ 23-May-2013 ✈ KMGY - KBKL

Flight Track Log - Related Links

Times and Time Zones

All times are in EDT time to prevent confusion due to time zone crossing. See the CTL15 flight status page for this flight to view local times or setup timezone preferences in your user account.

Time Position Orientation Groundspeed Altitude Reporting Facility
EDT Latitude Longitude Course Direction KTS MPH feet Rate Location/Type
07:47PM 39.5708 -84.2008 45° Northeast 113 130 2,200  Level Indianapolis Center
07:48PM 39.6011 -84.1614 45° Northeast 120 138 3,500 960 Climbing Indianapolis Center
07:49PM 39.6122 -84.1450 49° Northeast 118 136 4,100 960 Climbing Indianapolis Center
07:49PM 39.6228 -84.1264 54° Northeast 125 144 4,500 840 Climbing Indianapolis Center
07:50PM 39.6353 -84.1089 47° Northeast 124 143 5,000 960 Climbing Indianapolis Center
07:50PM 39.6467 -84.0889 54° Northeast 136 157 5,500 840 Climbing Indianapolis Center
07:51PM 39.6589 -84.0692 51° Northeast 132 152 5,900 780 Climbing Indianapolis Center
07:51PM 39.6772 -84.0467 43° Northeast 140 161 6,400 840 Climbing Indianapolis Center
07:52PM 39.6867 -84.0331 48° Northeast 136 157 6,800 480 Climbing Indianapolis Center
07:52PM 39.7053 -84.0097 44° Northeast 151 174 6,900 60 Climbing Indianapolis Center
07:53PM 39.7236 -83.9844 47° Northeast 150 173 6,900  Level Indianapolis Center
07:53PM 39.7311 -83.9725 51° Northeast 181 208 6,900  Level Indianapolis Center
07:54PM 39.7600 -83.9367 44° Northeast 170 196 6,900  Level Indianapolis Center
07:55PM 39.7961 -83.8894 45° Northeast 178 205 6,900  Level Indianapolis Center
07:56PM 39.8336 -83.8447 42° Northeast 180 207 7,000  Climbing Indianapolis Center
07:57PM 39.8692 -83.7969 46° Northeast 181 208 6,900  Descending Indianapolis Center
07:58PM 39.9122 -83.7400 45° Northeast 176 203 7,000  Climbing Indianapolis Center
07:59PM 39.9403 -83.7056 43° Northeast 178 205 6,900  Descending Indianapolis Center
08:00PM 39.9767 -83.6622 42° Northeast 176 203 7,000  Climbing Indianapolis Center
08:01PM 40.0133 -83.6167 44° Northeast 175 201 7,000  Level Indianapolis Center
08:02PM 40.0500 -83.5750 41° Northeast 177 204 7,000  Level Indianapolis Center
08:03PM 40.0894 -83.5225 46° Northeast 179 206 7,100  Climbing Indianapolis Center
08:04PM 40.1261 -83.4806 41° Northeast 176 203 7,100  Level Indianapolis Center
08:05PM 40.1628 -83.4361 43° Northeast 181 208 7,100  Level Indianapolis Center
08:06PM 40.2025 -83.3875 43° Northeast 180 207 7,100  Level Indianapolis Center
08:07PM 40.2383 -83.3450 42° Northeast 175 201 7,100 -60 Level Indianapolis Center
08:08PM 40.2706 -83.3017 46° Northeast 179 206 7,000  Descending Indianapolis Center
08:09PM 40.3111 -83.2539 42° Northeast 179 206 7,200  Climbing Indianapolis Center
08:10PM 40.3472 -83.2086 44° Northeast 178 205 7,100 -60 Descending Indianapolis Center
08:11PM 40.3819 -83.1619 46° Northeast 177 204 7,100 -60 Level Indianapolis Center
08:12PM 40.4194 -83.1208 40° Northeast 175 201 7,000 -60 Descending Indianapolis Center
08:13PM 40.4614 -83.0697 43° Northeast 175 201 7,000  Level Indianapolis Center
08:14PM 40.4983 -83.0253 42° Northeast 177 204 7,000 -60 Level Indianapolis Center
08:15PM 40.5303 -82.9850 44° Northeast 178 205 6,900 -300 Descending Indianapolis Center
08:16PM 40.5714 -82.9258 48° Northeast 186 214 6,400 -540 Descending Indianapolis Center
08:17PM 40.6011 -82.8631 58° Northeast 196 226 5,800 -660 Descending Indianapolis Center
08:18PM 40.6294 -82.8047 57° Northeast 189 217 5,100 -420 Descending Indianapolis Center
08:20PM 40.6581 -82.7494 56° Northeast 183 211 5,000 -60 Descending Indianapolis Center
08:21PM 40.6839 -82.6964 57° Northeast 173 199 5,000  Level Indianapolis Center
08:22PM 40.7100 -82.6453 56° Northeast 167 192 5,000  Level Indianapolis Center
08:23PM 40.7369 -82.5942 55° Northeast 169 194 5,000  Level Indianapolis Center